createdAt,value
2023-04-30T00:00:28.725Z,15.70
2023-04-30T00:03:16.820Z,20.10
2023-04-30T00:05:44.831Z,18.80
2023-04-30T00:08:12.891Z,18.10
2023-04-30T00:10:40.859Z,21.20
2023-04-30T00:13:10.374Z,23.50
2023-04-30T00:15:38.283Z,18.90
2023-04-30T00:18:07.258Z,21.70
2023-04-30T00:20:35.707Z,19.50
2023-04-30T00:23:03.663Z,22.00
2023-04-30T00:25:31.558Z,21.60
2023-04-30T00:27:59.509Z,18.90
2023-04-30T00:30:27.421Z,21.50
2023-04-30T00:32:55.355Z,24.30
2023-04-30T00:35:23.422Z,21.40
2023-04-30T00:37:51.497Z,25.20
2023-04-30T00:40:20.641Z,21.80
2023-04-30T00:42:48.979Z,22.90
2023-04-30T00:45:21.745Z,22.20
2023-04-30T00:47:50.032Z,22.30
2023-04-30T00:50:18.328Z,23.00
2023-04-30T00:52:46.295Z,24.70
2023-04-30T00:55:14.296Z,22.80
2023-04-30T00:57:43.027Z,22.40
2023-04-30T01:00:11.569Z,22.40
2023-04-30T01:02:40.075Z,25.10
2023-04-30T01:05:08.356Z,21.30
2023-04-30T01:07:39.121Z,22.10
2023-04-30T01:10:07.684Z,24.20
2023-04-30T01:12:39.513Z,21.30
2023-04-30T01:15:10.686Z,21.20
2023-04-30T01:20:08.626Z,27.10
2023-04-30T01:22:43.108Z,20.60
2023-04-30T01:25:29.800Z,24.60
2023-04-30T01:28:00.863Z,22.50
2023-04-30T01:32:56.942Z,23.40
2023-04-30T01:35:32.190Z,25.70
2023-04-30T01:38:06.553Z,24.70
2023-04-30T01:40:48.098Z,23.60
2023-04-30T01:43:31.538Z,25.70
2023-04-30T01:46:18.349Z,25.00
2023-04-30T01:48:46.395Z,26.50
2023-04-30T01:51:25.033Z,25.70
2023-04-30T01:53:54.062Z,24.20
2023-04-30T01:56:24.748Z,22.50
2023-04-30T01:58:52.983Z,23.40
2023-04-30T02:01:33.726Z,22.50
2023-04-30T02:04:02.321Z,24.30
2023-04-30T02:06:31.466Z,27.60
2023-04-30T02:09:05.349Z,24.80
2023-04-30T02:11:33.272Z,22.60
2023-04-30T02:14:01.261Z,24.10
2023-04-30T02:16:29.271Z,24.40
2023-04-30T02:18:57.428Z,22.60
2023-04-30T02:21:25.895Z,23.30
2023-04-30T02:23:54.273Z,22.60
2023-04-30T02:26:22.253Z,22.80
2023-04-30T02:28:50.195Z,22.40
2023-04-30T02:31:18.458Z,23.90
2023-04-30T02:33:47.165Z,25.30
2023-04-30T02:36:15.112Z,27.00
2023-04-30T02:38:43.106Z,21.80
2023-04-30T02:41:11.177Z,24.30
2023-04-30T02:43:40.337Z,22.70
2023-04-30T02:46:08.408Z,22.40
2023-04-30T02:48:36.438Z,24.40
2023-04-30T02:51:04.751Z,24.80
2023-04-30T02:53:32.710Z,20.40
2023-04-30T02:56:00.762Z,26.50
2023-04-30T02:58:28.796Z,21.70
2023-04-30T03:00:57.670Z,21.70
2023-04-30T03:03:25.967Z,24.90
2023-04-30T03:05:56.772Z,22.60
2023-04-30T03:08:25.133Z,23.60
2023-04-30T03:10:53.145Z,20.30
2023-04-30T03:13:21.413Z,21.80
2023-04-30T03:15:49.379Z,19.00
2023-04-30T03:18:17.276Z,20.40
2023-04-30T03:20:45.430Z,20.90
2023-04-30T03:23:13.547Z,22.50
2023-04-30T03:25:41.504Z,20.00
2023-04-30T03:28:09.755Z,21.50
2023-04-30T03:30:38.599Z,19.50
2023-04-30T03:33:06.820Z,23.10
2023-04-30T03:35:35.184Z,19.50
2023-04-30T03:38:03.157Z,20.70
2023-04-30T03:40:31.631Z,21.40
2023-04-30T03:42:59.636Z,19.00
2023-04-30T03:45:27.680Z,17.20
2023-04-30T03:47:56.011Z,17.90
2023-04-30T03:50:24.035Z,17.70
2023-04-30T03:52:52.311Z,17.80
2023-04-30T03:55:20.298Z,33.20
2023-04-30T03:57:48.269Z,20.90
2023-04-30T04:00:16.541Z,16.30
2023-04-30T04:02:47.148Z,16.30
2023-04-30T04:05:15.785Z,18.80
2023-04-30T04:07:44.484Z,18.40
2023-04-30T04:10:12.731Z,17.70
2023-04-30T04:12:40.982Z,19.60
2023-04-30T04:15:09.245Z,18.40
2023-04-30T04:17:37.496Z,15.10
2023-04-30T04:20:06.553Z,19.90
2023-04-30T04:22:35.116Z,19.70
2023-04-30T04:25:03.194Z,18.60
2023-04-30T04:27:32.794Z,17.70
2023-04-30T04:30:02.041Z,22.80
2023-04-30T04:32:30.782Z,22.50
2023-04-30T04:34:59.306Z,17.60
2023-04-30T04:37:27.523Z,21.00
2023-04-30T04:39:56.336Z,20.20
2023-04-30T04:42:24.904Z,19.20
2023-04-30T04:44:52.853Z,21.10
2023-04-30T04:47:22.044Z,15.70
2023-04-30T04:49:50.138Z,15.90
2023-04-30T04:52:18.103Z,17.80
2023-04-30T04:54:46.071Z,16.50
2023-04-30T04:57:13.987Z,14.00
2023-04-30T04:59:41.907Z,12.10
2023-04-30T05:02:10.248Z,14.00
2023-04-30T05:04:38.490Z,15.00
2023-04-30T05:07:07.770Z,13.70
2023-04-30T05:09:36.395Z,13.60
2023-04-30T05:12:04.748Z,15.20
2023-04-30T05:14:32.710Z,12.80
2023-04-30T05:17:00.677Z,12.10
2023-04-30T05:19:28.676Z,11.50
2023-04-30T05:21:56.647Z,14.30
2023-04-30T05:24:24.680Z,14.70
2023-04-30T05:26:52.646Z,10.40
2023-04-30T05:29:20.620Z,11.00
2023-04-30T05:31:48.644Z,10.60
2023-04-30T05:34:16.889Z,22.70
2023-04-30T05:36:45.686Z,11.20
2023-04-30T05:39:14.337Z,11.10
2023-04-30T05:41:42.529Z,10.00
2023-04-30T05:44:10.495Z,12.90
2023-04-30T05:46:38.490Z,9.80
2023-04-30T05:49:06.453Z,9.10
2023-04-30T05:51:34.593Z,9.90
2023-04-30T05:54:02.577Z,10.50
2023-04-30T05:56:30.540Z,9.40
2023-04-30T05:58:58.559Z,8.90
2023-04-30T06:01:29.026Z,8.20
2023-04-30T06:03:57.034Z,9.80
2023-04-30T06:06:24.979Z,7.90
2023-04-30T06:08:52.966Z,8.40
2023-04-30T06:11:21.508Z,6.60
2023-04-30T06:13:49.690Z,7.30
2023-04-30T06:16:17.683Z,10.00
2023-04-30T06:18:45.921Z,9.30
2023-04-30T06:21:14.010Z,9.20
2023-04-30T06:23:42.000Z,8.30
2023-04-30T06:26:10.065Z,7.20
2023-04-30T06:28:38.027Z,8.70
2023-04-30T06:31:06.295Z,15.70
2023-04-30T06:33:34.275Z,9.30
2023-04-30T06:36:02.221Z,8.50
2023-04-30T06:38:30.202Z,6.10
2023-04-30T06:40:58.397Z,6.90
2023-04-30T06:43:26.311Z,12.10
2023-04-30T06:45:54.346Z,7.90
2023-04-30T06:48:23.090Z,7.90
2023-04-30T06:50:51.017Z,9.20
2023-04-30T06:53:19.367Z,6.50
2023-04-30T06:55:47.300Z,7.40
2023-04-30T06:58:15.198Z,8.20
2023-04-30T07:00:43.163Z,9.40
2023-04-30T07:03:11.266Z,10.70
2023-04-30T07:05:39.551Z,9.80
2023-04-30T07:08:07.834Z,10.60
2023-04-30T07:10:36.372Z,8.50
2023-04-30T07:13:04.634Z,8.00
2023-04-30T07:15:32.652Z,8.00
2023-04-30T07:18:00.909Z,9.90
2023-04-30T07:20:28.945Z,8.10
2023-04-30T07:22:57.038Z,8.70
2023-04-30T07:25:25.022Z,7.50
2023-04-30T07:27:53.785Z,9.10
2023-04-30T07:30:24.429Z,7.40
2023-04-30T07:32:53.137Z,9.10
2023-04-30T07:35:21.282Z,10.70
2023-04-30T07:37:49.344Z,8.10
2023-04-30T07:40:25.094Z,8.20
2023-04-30T07:43:03.406Z,8.10
2023-04-30T07:45:32.025Z,7.40
2023-04-30T07:47:59.979Z,8.30
2023-04-30T07:50:29.770Z,4.60
2023-04-30T07:52:57.742Z,9.00
2023-04-30T07:55:25.677Z,8.30
2023-04-30T07:57:53.887Z,7.70
2023-04-30T08:00:21.916Z,7.40
2023-04-30T08:02:50.858Z,7.60
2023-04-30T08:05:19.180Z,7.30
2023-04-30T08:07:47.198Z,8.60
2023-04-30T08:10:15.272Z,7.80
2023-04-30T08:12:43.319Z,8.60
2023-04-30T08:15:11.434Z,6.20
2023-04-30T08:17:39.518Z,7.00
2023-04-30T08:20:08.180Z,8.10
2023-04-30T08:22:36.444Z,10.70
2023-04-30T08:25:04.865Z,5.10
2023-04-30T08:27:33.012Z,5.20
2023-04-30T08:30:01.006Z,5.90
2023-04-30T08:38:06.829Z,5.20
2023-04-30T08:40:50.376Z,6.10
2023-04-30T08:43:20.240Z,6.10
2023-04-30T08:45:49.113Z,8.40
2023-04-30T08:48:17.088Z,6.60
2023-04-30T08:50:45.843Z,7.60
2023-04-30T08:53:15.577Z,6.90
2023-04-30T08:55:43.411Z,7.90
2023-04-30T08:58:11.136Z,6.80
2023-04-30T09:00:39.958Z,5.10
2023-04-30T09:03:08.554Z,5.70
2023-04-30T09:05:37.771Z,5.80
2023-04-30T09:08:06.813Z,6.10
2023-04-30T09:10:35.316Z,6.20
2023-04-30T09:13:09.756Z,5.50
2023-04-30T09:15:38.976Z,5.10
2023-04-30T09:18:19.802Z,7.00
2023-04-30T09:20:57.828Z,5.80
2023-04-30T09:23:25.940Z,4.20
2023-04-30T09:25:54.010Z,7.40
2023-04-30T09:28:24.610Z,6.70
2023-04-30T09:30:52.976Z,6.70
2023-04-30T09:33:20.971Z,5.80
2023-04-30T09:35:49.274Z,5.50
2023-04-30T09:38:27.173Z,5.20
2023-04-30T09:40:55.413Z,4.20
2023-04-30T09:43:23.446Z,3.70
2023-04-30T09:45:52.373Z,4.90
2023-04-30T09:48:24.049Z,3.10
2023-04-30T09:50:52.212Z,5.40
2023-04-30T09:53:20.191Z,6.20
2023-04-30T09:55:49.062Z,4.90
2023-04-30T09:58:17.768Z,4.30
2023-04-30T10:00:47.141Z,4.10
2023-04-30T10:03:15.422Z,4.30
2023-04-30T10:05:47.191Z,7.00
2023-04-30T10:08:28.414Z,2.80
2023-04-30T10:11:02.013Z,3.40
2023-04-30T10:13:36.026Z,3.70
2023-04-30T10:16:19.545Z,3.60
2023-04-30T10:18:49.596Z,4.80
2023-04-30T10:21:18.114Z,7.70
2023-04-30T10:23:46.386Z,3.50
2023-04-30T10:26:16.344Z,4.20
2023-04-30T10:28:44.814Z,4.00
2023-04-30T10:31:13.161Z,4.80
2023-04-30T10:33:40.990Z,3.60
2023-04-30T10:36:13.820Z,3.10
2023-04-30T10:38:41.835Z,4.90
2023-04-30T10:41:10.050Z,3.70
2023-04-30T10:43:37.932Z,4.50
2023-04-30T10:46:05.828Z,4.90
2023-04-30T10:48:34.968Z,5.20
2023-04-30T10:51:02.775Z,4.50
2023-04-30T10:53:32.059Z,4.30
2023-04-30T10:56:06.406Z,4.10
2023-04-30T10:58:35.500Z,4.80
2023-04-30T11:01:13.731Z,4.20
2023-04-30T11:03:43.197Z,4.80
2023-04-30T11:06:15.141Z,6.40
2023-04-30T11:08:44.360Z,4.00
2023-04-30T11:11:14.639Z,6.30
2023-04-30T11:16:10.701Z,3.30
2023-04-30T11:18:42.572Z,6.40
2023-04-30T11:21:11.048Z,3.00
2023-04-30T11:23:49.469Z,4.00
2023-04-30T11:26:17.341Z,3.10
2023-04-30T11:28:51.280Z,3.70
2023-04-30T11:31:19.419Z,4.40
2023-04-30T11:33:47.568Z,5.50
2023-04-30T11:36:15.555Z,2.80
2023-04-30T11:38:43.362Z,4.60
2023-04-30T11:41:12.959Z,4.70
2023-04-30T11:43:40.765Z,3.90
2023-04-30T11:46:17.414Z,4.60
2023-04-30T11:48:46.287Z,3.90
2023-04-30T11:51:16.873Z,4.50
2023-04-30T11:56:12.385Z,4.80
2023-04-30T11:58:40.427Z,3.40
2023-04-30T12:01:09.838Z,3.10
2023-04-30T12:03:43.926Z,3.00
2023-04-30T12:06:32.204Z,3.00
2023-04-30T12:09:11.689Z,4.30
2023-04-30T12:11:39.494Z,5.30
2023-04-30T12:14:10.724Z,4.10
2023-04-30T12:16:41.710Z,3.20
2023-04-30T12:19:09.756Z,5.30
2023-04-30T12:21:38.794Z,6.90
2023-04-30T12:24:07.493Z,3.50
2023-04-30T12:26:40.246Z,3.60
2023-04-30T12:29:09.178Z,3.90
2023-04-30T12:31:37.665Z,4.20
2023-04-30T12:34:09.225Z,5.20
2023-04-30T12:36:37.509Z,5.20
2023-04-30T12:39:16.294Z,6.40
2023-04-30T12:41:48.157Z,3.90
2023-04-30T12:44:16.231Z,4.40
2023-04-30T12:46:46.620Z,4.90
2023-04-30T12:51:42.945Z,4.00
2023-04-30T12:54:10.865Z,4.90
2023-04-30T12:56:39.144Z,4.70
2023-04-30T12:59:14.943Z,6.20
2023-04-30T13:01:46.310Z,4.40
2023-04-30T13:04:14.212Z,2.90
2023-04-30T13:06:42.520Z,4.70
2023-04-30T13:09:10.663Z,3.70
2023-04-30T13:11:38.567Z,4.60
2023-04-30T13:14:06.822Z,4.10
2023-04-30T13:16:35.444Z,4.10
2023-04-30T13:19:05.318Z,5.50
2023-04-30T13:21:33.318Z,4.40
2023-04-30T13:24:01.668Z,3.50
2023-04-30T13:26:29.818Z,4.00
2023-04-30T13:28:57.691Z,6.40
2023-04-30T13:31:25.930Z,3.70
2023-04-30T13:33:55.073Z,4.50
2023-04-30T13:36:23.022Z,2.80
2023-04-30T13:38:50.803Z,3.20
2023-04-30T13:41:18.659Z,4.20
2023-04-30T13:43:47.861Z,3.90
2023-04-30T13:46:16.737Z,4.50
2023-04-30T13:48:48.230Z,4.40
2023-04-30T13:51:16.158Z,4.20
2023-04-30T13:53:44.340Z,4.60
2023-04-30T13:56:12.866Z,5.20
2023-04-30T13:58:40.693Z,5.30
2023-04-30T14:01:09.375Z,3.90
2023-04-30T14:03:37.478Z,3.20
2023-04-30T14:06:06.192Z,4.60
2023-04-30T14:08:34.160Z,4.30
2023-04-30T14:11:01.943Z,6.40
2023-04-30T14:13:29.865Z,3.60
2023-04-30T14:15:57.656Z,4.30
2023-04-30T14:18:25.514Z,6.00
2023-04-30T14:20:53.335Z,4.30
2023-04-30T14:23:21.203Z,3.60
2023-04-30T14:25:48.998Z,6.30
2023-04-30T14:28:17.324Z,4.60
2023-04-30T14:30:45.114Z,5.00
2023-04-30T14:33:13.763Z,2.50
2023-04-30T14:35:41.735Z,4.70
2023-04-30T14:38:09.840Z,5.70
2023-04-30T14:40:37.643Z,7.00
2023-04-30T14:43:05.473Z,2.50
2023-04-30T14:45:33.791Z,5.80
2023-04-30T14:48:03.954Z,6.90
2023-04-30T14:50:33.346Z,4.30
2023-04-30T14:53:01.176Z,2.70
2023-04-30T14:55:29.048Z,4.30
2023-04-30T14:57:57.262Z,7.50
2023-04-30T15:00:25.354Z,4.80
2023-04-30T15:02:53.253Z,6.30
2023-04-30T15:05:21.367Z,4.60
2023-04-30T15:07:49.109Z,4.10
2023-04-30T15:10:16.824Z,2.90
2023-04-30T15:12:44.693Z,3.70
2023-04-30T15:15:13.075Z,3.70
2023-04-30T15:17:41.440Z,4.50
2023-04-30T15:20:09.688Z,4.80
2023-04-30T15:22:37.683Z,6.20
2023-04-30T15:25:05.914Z,8.90
2023-04-30T15:27:34.016Z,6.40
2023-04-30T15:30:01.900Z,4.70
2023-04-30T15:32:29.874Z,6.10
2023-04-30T15:34:57.736Z,5.00
2023-04-30T15:37:25.750Z,6.20
2023-04-30T15:39:53.892Z,6.60
2023-04-30T15:42:21.761Z,5.30
2023-04-30T15:44:49.618Z,4.60
2023-04-30T15:47:17.420Z,7.20
2023-04-30T15:49:45.561Z,2.60
2023-04-30T15:52:13.404Z,2.80
2023-04-30T15:54:41.282Z,4.50
2023-04-30T15:57:09.048Z,7.10
2023-04-30T15:59:36.830Z,4.20
2023-04-30T16:02:04.848Z,14.50
2023-04-30T16:04:32.777Z,15.60
2023-04-30T16:07:01.284Z,7.80
2023-04-30T16:09:29.951Z,30.40
2023-04-30T16:11:58.924Z,71.70
2023-04-30T16:14:26.725Z,14.20
2023-04-30T16:16:55.116Z,14.00
2023-04-30T16:19:22.988Z,3.50
2023-04-30T16:21:50.948Z,5.20
2023-04-30T16:24:18.676Z,3.20
2023-04-30T16:26:46.426Z,2.10
2023-04-30T16:29:14.330Z,3.40
2023-04-30T16:31:42.206Z,4.70
2023-04-30T16:34:12.163Z,6.70
2023-04-30T16:36:40.381Z,4.50
2023-04-30T16:39:08.211Z,3.80
2023-04-30T16:41:35.951Z,8.10
2023-04-30T16:44:03.876Z,8.00
2023-04-30T16:46:32.031Z,5.20
2023-04-30T16:49:00.010Z,4.90
2023-04-30T16:51:27.877Z,4.40
2023-04-30T16:53:55.717Z,4.50
2023-04-30T16:56:23.681Z,4.40
2023-04-30T16:58:51.487Z,4.00
2023-04-30T17:01:19.440Z,2.80
2023-04-30T17:03:47.848Z,6.50
2023-04-30T17:06:16.405Z,3.90
2023-04-30T17:08:44.392Z,3.20
2023-04-30T17:11:12.190Z,3.40
2023-04-30T17:13:40.388Z,4.40
2023-04-30T17:16:08.286Z,6.50
2023-04-30T17:18:36.102Z,7.70
2023-04-30T17:21:04.090Z,5.10
2023-04-30T17:23:32.093Z,4.90
2023-04-30T17:26:01.254Z,3.20
2023-04-30T17:28:29.043Z,7.40
2023-04-30T17:30:56.856Z,5.60
2023-04-30T17:33:26.770Z,6.20
2023-04-30T17:35:55.066Z,6.90
2023-04-30T17:38:22.791Z,10.40
2023-04-30T17:40:52.249Z,19.70
2023-04-30T17:43:20.057Z,26.40
2023-04-30T17:45:47.967Z,98.90
2023-04-30T17:48:15.849Z,47.80
2023-04-30T17:50:44.024Z,26.90
2023-04-30T17:53:11.773Z,100.50
2023-04-30T17:55:39.577Z,36.30
2023-04-30T17:58:10.348Z,45.20
2023-04-30T18:00:38.726Z,32.90
2023-04-30T18:03:06.970Z,30.30
2023-04-30T18:05:35.880Z,47.40
2023-04-30T18:08:04.008Z,45.10
2023-04-30T18:10:31.768Z,67.80
2023-04-30T18:12:59.727Z,76.90
2023-04-30T18:15:27.698Z,48.00
2023-04-30T18:17:55.789Z,35.70
2023-04-30T18:20:23.655Z,28.40
2023-04-30T18:22:51.926Z,32.00
2023-04-30T18:25:19.918Z,27.40
2023-04-30T18:27:47.667Z,17.30
2023-04-30T18:30:15.756Z,21.70
2023-04-30T18:32:44.330Z,32.50
2023-04-30T18:35:12.368Z,15.50
2023-04-30T18:37:40.254Z,17.50
2023-04-30T18:40:08.466Z,11.00
2023-04-30T18:42:37.761Z,13.70
2023-04-30T18:45:05.998Z,50.70
2023-04-30T18:47:33.938Z,86.20
2023-04-30T18:50:06.393Z,79.30
2023-04-30T18:52:40.610Z,48.90
2023-04-30T18:57:51.879Z,52.70
2023-04-30T19:00:31.260Z,43.30
2023-04-30T19:03:07.772Z,29.70
2023-04-30T19:05:46.193Z,54.60
2023-04-30T19:08:27.075Z,331.50
2023-04-30T19:11:03.737Z,155.10
2023-04-30T19:13:39.393Z,95.70
2023-04-30T19:16:14.279Z,49.50
2023-04-30T19:18:58.412Z,29.50
2023-04-30T19:21:40.495Z,23.20
2023-04-30T19:24:14.533Z,21.30
2023-04-30T19:26:46.166Z,16.50
2023-04-30T19:29:13.939Z,21.90
2023-04-30T19:31:41.817Z,16.40
2023-04-30T19:34:09.918Z,13.90
2023-04-30T19:36:37.746Z,9.50
2023-04-30T19:39:10.314Z,12.60
2023-04-30T19:41:38.341Z,23.20
2023-04-30T19:44:07.723Z,18.20
2023-04-30T19:46:35.642Z,28.40
2023-04-30T19:49:04.182Z,36.90
2023-04-30T19:51:32.063Z,21.00
2023-04-30T19:54:21.920Z,16.40
2023-04-30T19:57:06.998Z,11.90
2023-04-30T19:59:50.022Z,37.90
2023-04-30T20:02:30.786Z,18.10
2023-04-30T20:04:58.829Z,13.50
2023-04-30T20:07:26.591Z,49.20
2023-04-30T20:09:54.438Z,49.40
2023-04-30T20:12:22.566Z,65.20
2023-04-30T20:14:50.620Z,43.40
2023-04-30T20:17:18.506Z,41.00
2023-04-30T20:19:46.298Z,32.90
2023-04-30T20:22:14.056Z,35.20
2023-04-30T20:24:44.639Z,51.10
2023-04-30T20:27:12.834Z,76.60
2023-04-30T20:29:41.433Z,56.70
2023-04-30T20:32:09.592Z,48.30
2023-04-30T20:34:37.712Z,62.00
2023-04-30T20:37:05.848Z,38.10
2023-04-30T20:39:33.736Z,33.50
2023-04-30T20:42:01.792Z,34.80
2023-04-30T20:44:29.649Z,37.50
2023-04-30T20:46:57.460Z,30.50
2023-04-30T20:49:27.026Z,51.60
2023-04-30T20:51:54.736Z,47.80
2023-04-30T20:54:22.784Z,39.10
2023-04-30T20:56:50.597Z,33.80
2023-04-30T20:59:18.551Z,40.50
2023-04-30T21:01:46.400Z,31.90
2023-04-30T21:04:14.821Z,27.30
2023-04-30T21:06:42.853Z,31.80
2023-04-30T21:09:12.625Z,28.30
2023-04-30T21:11:41.095Z,28.20
2023-04-30T21:14:09.375Z,18.50
2023-04-30T21:16:37.210Z,22.00
2023-04-30T21:19:05.118Z,32.80
2023-04-30T21:21:33.813Z,34.00
2023-04-30T21:24:01.668Z,23.70
2023-04-30T21:26:29.410Z,28.60
2023-04-30T21:28:57.206Z,25.80
2023-04-30T21:31:25.053Z,21.30
2023-04-30T21:33:52.986Z,22.70
2023-04-30T21:36:22.026Z,32.20
2023-04-30T21:38:49.881Z,122.90
2023-04-30T21:41:18.576Z,175.60
2023-04-30T21:43:46.395Z,130.10
2023-04-30T21:46:14.485Z,75.90
2023-04-30T21:48:42.757Z,36.80
2023-04-30T21:51:12.514Z,31.90
2023-04-30T21:53:41.520Z,24.10
2023-04-30T21:56:10.069Z,23.30
2023-04-30T21:58:38.661Z,26.10
2023-04-30T22:01:06.535Z,25.70
2023-04-30T22:03:35.638Z,24.30
2023-04-30T22:06:03.687Z,28.90
2023-04-30T22:08:31.456Z,37.70
2023-04-30T22:11:00.499Z,30.40
2023-04-30T22:13:28.917Z,41.30
2023-04-30T22:15:56.802Z,48.40
2023-04-30T22:18:25.154Z,38.00
2023-04-30T22:30:58.779Z,34.10
2023-04-30T22:33:26.591Z,28.40
2023-04-30T22:35:55.138Z,56.30
2023-04-30T22:38:23.053Z,39.70
2023-04-30T22:40:50.885Z,85.20
2023-04-30T22:43:18.822Z,36.90
2023-04-30T22:45:47.118Z,32.20
2023-04-30T22:48:16.099Z,35.00
2023-04-30T22:50:44.127Z,34.50
2023-04-30T22:53:13.330Z,39.40
2023-04-30T22:55:41.192Z,34.60
2023-04-30T22:58:08.906Z,37.60
2023-04-30T23:00:36.794Z,36.30
2023-04-30T23:03:05.125Z,38.10
2023-04-30T23:05:33.014Z,29.80
2023-04-30T23:08:01.266Z,32.20
2023-04-30T23:10:29.009Z,37.60
2023-04-30T23:12:58.756Z,35.40
2023-04-30T23:15:27.002Z,31.10
2023-04-30T23:17:55.852Z,23.80
2023-04-30T23:20:23.816Z,19.30
2023-04-30T23:22:51.700Z,21.30
2023-04-30T23:25:19.438Z,22.90
2023-04-30T23:27:47.350Z,23.30
2023-04-30T23:30:15.148Z,20.90
2023-04-30T23:32:43.098Z,22.00
2023-04-30T23:35:10.976Z,22.00
2023-04-30T23:37:38.774Z,20.60
2023-04-30T23:40:07.545Z,22.00
2023-04-30T23:42:35.586Z,18.80
2023-04-30T23:45:03.954Z,20.60
2023-04-30T23:47:33.102Z,18.70
2023-04-30T23:50:00.836Z,25.50
2023-04-30T23:52:28.584Z,22.20
2023-04-30T23:54:57.476Z,19.60
2023-04-30T23:57:27.658Z,21.10
2023-04-30T23:59:56.284Z,20.90
